CST,Max TemperatureF,Mean TemperatureF,Min TemperatureF,Max Dew PointF,MeanDew PointF,Min DewpointF,Max Humidity, Mean Humidity, Min Humidity, Max Sea Level PressureIn, Mean Sea Level PressureIn, Min Sea Level PressureIn, Max VisibilityMiles, Mean VisibilityMiles, Min VisibilityMiles, Max Wind SpeedMPH, Mean Wind SpeedMPH, Max Gust SpeedMPH,PrecipitationIn, CloudCover, Events, WindDirDegrees
2013-12-1,55,48,42,49,46,40,100,91,80,30.13,29.99,29.90,10,5,0,8,4,,0.00,5,Fog,174
2013-12-2,63,51,39,49,44,38,100,89,52,29.90,29.79,29.68,10,3,0,9,2,,0.00,5,Fog,142
2013-12-3,68,54,39,51,44,38,100,88,39,29.67,29.63,29.54,10,4,0,13,6,,0.00,2,Fog,132
2013-12-4,61,47,32,48,41,30,97,86,57,29.97,29.72,29.55,10,6,1,16,9,23,0.00,4,Rain,276
2013-12-5,30,24,19,28,19,15,96,89,69,30.30,30.19,29.99,10,4,0,15,10,23,0.34,8,Fog-Snow,360
2013-12-6,19,17,14,18,14,6,93,88,68,30.59,30.32,30.20,10,3,0,14,10,21,0.00,8,Fog-Snow,16
2013-12-7,23,14,5,12,6,-1,80,66,48,30.67,30.54,30.33,10,10,9,18,8,,0.00,3,Snow,48
2013-12-8,28,24,19,27,22,12,100,90,68,30.28,30.13,29.99,10,4,2,13,8,,0.00,8,Rain-Snow,171
2013-12-9,26,22,19,25,18,13,93,82,65,30.36,30.28,30.16,10,9,4,13,9,,0.00,7,Snow,338
2013-12-10,34,22,10,18,13,8,93,79,42,30.47,30.37,30.30,10,7,2,13,7,,0.00,3,Snow,234
2013-12-11,34,24,15,25,17,11,100,82,52,30.65,30.48,30.32,10,6,0,12,4,,0.01,1,Fog,338
2013-12-12,39,27,15,22,16,10,88,66,41,30.62,30.50,30.30,10,10,10,14,7,,0.04,0,,185
2013-12-13,36,33,30,36,32,19,100,90,54,30.26,29.95,29.84,10,6,0,16,7,23,0.47,7,Fog-Rain,145
2013-12-14,35,30,23,36,31,21,100,94,85,30.27,29.98,29.83,10,4,0,18,7,26,0.32,8,Fog-Rain,306
2013-12-15,46,32,19,32,25,18,100,80,54,30.29,30.22,30.14,10,6,2,13,5,,0.00,0,,217
2013-12-16,61,52,43,33,32,31,68,49,32,30.15,30.11,30.07,10,10,10,15,10,,0.00,0,,215
2013-12-17,57,46,35,35,30,26,85,60,33,30.32,30.25,30.14,10,10,10,13,7,20,0.00,0,,273
2013-12-18,61,46,30,38,32,25,92,59,34,30.29,30.12,29.96,10,10,10,24,10,30,0.00,0,,163
2013-12-19,61,56,51,54,48,38,81,73,57,29.95,29.82,29.73,10,10,10,24,17,37,0.00,5,,179
2013-12-20,62,47,32,56,38,30,100,90,77,29.90,29.84,29.72,10,4,0,21,13,28,0.38,8,Fog-Rain-Snow,297
2013-12-21,39,36,32,37,34,30,100,94,87,29.82,29.68,29.48,10,5,0,20,8,25,1.23,8,Fog-Rain-Snow-Thunderstorm,34
2013-12-22,33,29,24,32,27,21,100,93,85,30.38,29.99,29.71,10,6,1,15,12,22,0.00,8,Snow,278
2013-12-23,28,22,15,21,19,12,93,84,69,30.62,30.52,30.36,10,7,2,10,7,,0.00,7,Snow,345
2013-12-24,42,27,12,25,19,10,96,79,49,30.61,30.45,30.29,10,8,3,14,6,18,0.00,3,,123
2013-12-25,42,34,25,32,28,23,100,83,65,30.42,30.36,30.30,10,8,2,9,3,,0.00,2,,252
2013-12-26,50,36,21,32,24,19,100,85,39,30.43,30.38,30.33,10,4,0,12,5,,0.00,2,Fog-Snow,157
2013-12-27,55,42,30,32,28,25,89,61,33,30.44,30.38,30.32,10,10,10,13,7,20,0.00,0,,194
2013-12-28,55,41,27,33,28,25,92,65,34,30.30,30.13,29.96,10,10,8,12,6,,0.00,0,,168
2013-12-29,42,30,19,36,24,14,89,81,73,30.30,30.16,29.96,10,9,5,15,8,21,0.00,6,Rain,334
2013-12-30,36,25,14,23,17,10,88,75,52,30.40,30.31,30.25,10,10,10,12,5,,0.00,0,,253
2013-12-31,54,38,21,25,21,19,92,60,28,30.41,30.31,30.17,10,10,10,20,7,25,0.00,0,,164